sensor_id;sensor_type;location;lat;lon;timestamp;temperature;humidity
20418;DHT22;10368;51.436;6.774;2022-07-15T00:17:39;17.20;99.90
20418;DHT22;10368;51.436;6.774;2022-07-15T00:20:07;16.90;99.90
20418;DHT22;10368;51.436;6.774;2022-07-15T00:22:34;16.90;99.90
20418;DHT22;10368;51.436;6.774;2022-07-15T00:25:01;17.00;99.90
20418;DHT22;10368;51.436;6.774;2022-07-15T00:27:29;16.80;99.90
20418;DHT22;10368;51.436;6.774;2022-07-15T00:29:56;17.00;99.90
20418;DHT22;10368;51.436;6.774;2022-07-15T00:32:23;17.00;99.90
20418;DHT22;10368;51.436;6.774;2022-07-15T00:34:50;16.80;99.90
20418;DHT22;10368;51.436;6.774;2022-07-15T00:37:20;17.10;99.90
20418;DHT22;10368;51.436;6.774;2022-07-15T00:39:47;17.00;99.90
20418;DHT22;10368;51.436;6.774;2022-07-15T00:42:14;17.00;99.90
20418;DHT22;10368;51.436;6.774;2022-07-15T00:45:18;16.70;99.90
20418;DHT22;10368;51.436;6.774;2022-07-15T00:47:51;16.80;99.90
20418;DHT22;10368;51.436;6.774;2022-07-15T00:50:20;16.90;99.90
20418;DHT22;10368;51.436;6.774;2022-07-15T00:53:01;16.90;99.90
20418;DHT22;10368;51.436;6.774;2022-07-15T00:55:36;16.70;99.90
20418;DHT22;10368;51.436;6.774;2022-07-15T00:58:04;16.90;99.90
20418;DHT22;10368;51.436;6.774;2022-07-15T01:00:32;16.90;99.90
20418;DHT22;10368;51.436;6.774;2022-07-15T01:03:00;16.80;99.90
20418;DHT22;10368;51.436;6.774;2022-07-15T01:05:28;16.80;99.90
20418;DHT22;10368;51.436;6.774;2022-07-15T01:07:55;16.70;99.90
20418;DHT22;10368;51.436;6.774;2022-07-15T01:10:23;16.80;99.90
20418;DHT22;10368;51.436;6.774;2022-07-15T01:12:53;16.70;99.90
20418;DHT22;10368;51.436;6.774;2022-07-15T01:15:21;16.80;99.90
20418;DHT22;10368;51.436;6.774;2022-07-15T01:17:48;16.80;99.90
20418;DHT22;10368;51.436;6.774;2022-07-15T01:20:15;16.80;99.90
20418;DHT22;10368;51.436;6.774;2022-07-15T01:22:43;16.80;99.90
20418;DHT22;10368;51.436;6.774;2022-07-15T01:25:10;16.70;99.90
20418;DHT22;10368;51.436;6.774;2022-07-15T01:27:37;16.60;99.90
20418;DHT22;10368;51.436;6.774;2022-07-15T01:30:05;16.70;99.90
20418;DHT22;10368;51.436;6.774;2022-07-15T01:32:32;16.60;99.90
20418;DHT22;10368;51.436;6.774;2022-07-15T01:34:59;16.60;99.90
20418;DHT22;10368;51.436;6.774;2022-07-15T01:37:26;16.60;99.90
20418;DHT22;10368;51.436;6.774;2022-07-15T01:39:53;16.60;99.90
20418;DHT22;10368;51.436;6.774;2022-07-15T01:42:20;16.60;99.90
20418;DHT22;10368;51.436;6.774;2022-07-15T01:44:48;16.60;99.90
20418;DHT22;10368;51.436;6.774;2022-07-15T02:14:17;16.60;99.90
20418;DHT22;10368;51.436;6.774;2022-07-15T02:16:44;16.20;99.90
20418;DHT22;10368;51.436;6.774;2022-07-15T02:19:11;16.20;99.90
20418;DHT22;10368;51.436;6.774;2022-07-15T02:21:39;16.00;99.90
20418;DHT22;10368;51.436;6.774;2022-07-15T02:24:06;16.10;99.90
20418;DHT22;10368;51.436;6.774;2022-07-15T02:26:33;15.90;99.90
20418;DHT22;10368;51.436;6.774;2022-07-15T02:29:00;16.00;99.90
20418;DHT22;10368;51.436;6.774;2022-07-15T02:31:27;16.00;99.90
20418;DHT22;10368;51.436;6.774;2022-07-15T02:33:55;15.90;99.90
20418;DHT22;10368;51.436;6.774;2022-07-15T02:36:22;15.90;99.90
20418;DHT22;10368;51.436;6.774;2022-07-15T02:38:49;16.00;99.90
20418;DHT22;10368;51.436;6.774;2022-07-15T11:22:31;15.80;99.90
20418;DHT22;10368;51.436;6.774;2022-07-15T11:24:58;22.30;83.50
20418;DHT22;10368;51.436;6.774;2022-07-15T11:27:31;21.90;84.40
20418;DHT22;10368;51.436;6.774;2022-07-15T11:30:01;21.50;85.90
20418;DHT22;10368;51.436;6.774;2022-07-15T11:32:32;21.40;85.50
20418;DHT22;10368;51.436;6.774;2022-07-15T11:35:02;21.20;84.60
20418;DHT22;10368;51.436;6.774;2022-07-15T11:37:32;21.20;85.10
20418;DHT22;10368;51.436;6.774;2022-07-15T11:40:12;21.20;84.90
20418;DHT22;10368;51.436;6.774;2022-07-15T11:43:01;21.00;85.00
20418;DHT22;10368;51.436;6.774;2022-07-15T11:45:47;21.20;85.70
20418;DHT22;10368;51.436;6.774;2022-07-15T11:48:15;21.20;85.30
20418;DHT22;10368;51.436;6.774;2022-07-15T11:50:54;21.80;86.20
20418;DHT22;10368;51.436;6.774;2022-07-15T11:55:51;22.30;80.70
20418;DHT22;10368;51.436;6.774;2022-07-15T11:58:51;22.30;81.70
20418;DHT22;10368;51.436;6.774;2022-07-15T12:01:24;22.10;81.70
20418;DHT22;10368;51.436;6.774;2022-07-15T12:03:53;21.70;83.40
20418;DHT22;10368;51.436;6.774;2022-07-15T12:06:32;21.30;83.70
20418;DHT22;10368;51.436;6.774;2022-07-15T12:09:04;21.10;83.90
20418;DHT22;10368;51.436;6.774;2022-07-15T12:11:37;21.00;84.50
20418;DHT22;10368;51.436;6.774;2022-07-15T12:14:05;21.40;83.20
20418;DHT22;10368;51.436;6.774;2022-07-15T12:16:44;22.00;81.10
20418;DHT22;10368;51.436;6.774;2022-07-15T12:21:43;21.70;82.40
20418;DHT22;10368;51.436;6.774;2022-07-15T12:26:41;22.30;80.70
20418;DHT22;10368;51.436;6.774;2022-07-15T12:29:11;22.20;80.80
20418;DHT22;10368;51.436;6.774;2022-07-15T12:31:40;21.70;82.10
20418;DHT22;10368;51.436;6.774;2022-07-15T12:42:03;23.30;77.90
20418;DHT22;10368;51.436;6.774;2022-07-15T12:44:31;25.10;71.80
20418;DHT22;10368;51.436;6.774;2022-07-15T12:47:05;24.90;71.70
